Time;durP1;ratioP1;P1;durP2;ratioP2;P2;SDS_P1;SDS_P2;PMS_P1;PMS_P2;Temp;Humidity;BMP_temperature;BMP_pressure;BME280_temperature;BME280_humidity;BME280_pressure;Samples;Min_cycle;Max_cycle;Signal;HPM_P1;HPM_P2
2022/11/30 00:00:49;;;;;;;10.03;7.97;;;;;;;;;;5024545;28;20217;-63
2022/11/30 00:03:17;;;;;;;9.10;7.37;;;;;;;;;;5040447;28;20232;-63
2022/11/30 00:05:44;;;;;;;9.47;7.30;;;;;;;;;;5043447;28;20235;-63
2022/11/30 00:08:12;;;;;;;10.03;8.27;;;;;;;;;;5034956;28;20225;-63
2022/11/30 00:10:40;;;;;;;10.03;8.17;;;;;;;;;;5054888;28;20659;-62
2022/11/30 00:13:08;;;;;;;10.80;8.30;;;;;;;;;;5045821;28;20247;-63
2022/11/30 00:15:36;;;;;;;8.30;6.63;;;;;;;;;;5040396;28;20202;-63
2022/11/30 00:18:03;;;;;;;7.77;6.73;;;;;;;;;;5042416;28;20198;-63
2022/11/30 00:20:31;;;;;;;8.93;7.17;;;;;;;;;;5025548;28;21968;-63
2022/11/30 00:22:58;;;;;;;7.97;6.83;;;;;;;;;;5024859;28;20229;-63
2022/11/30 00:25:26;;;;;;;8.97;6.73;;;;;;;;;;5021422;28;21224;-62
2022/11/30 00:27:53;;;;;;;8.57;6.63;;;;;;;;;;5027140;28;20248;-63
2022/11/30 00:30:20;;;;;;;9.93;7.00;;;;;;;;;;5025774;28;20213;-63
2022/11/30 00:32:48;;;;;;;6.73;5.53;;;;;;;;;;5038972;28;20798;-63
2022/11/30 00:35:16;;;;;;;6.00;5.17;;;;;;;;;;5039860;28;20235;-63
2022/11/30 00:37:44;;;;;;;6.47;5.30;;;;;;;;;;5042195;28;20201;-63
2022/11/30 00:40:12;;;;;;;6.20;5.60;;;;;;;;;;5015400;28;20339;-63
2022/11/30 00:42:39;;;;;;;6.40;4.90;;;;;;;;;;5024655;28;20247;-63
2022/11/30 00:45:07;;;;;;;5.73;5.13;;;;;;;;;;5031434;28;20210;-63
2022/11/30 00:47:34;;;;;;;5.93;4.80;;;;;;;;;;5024983;28;20214;-63
2022/11/30 00:50:03;;;;;;;5.60;4.87;;;;;;;;;;5029638;28;20263;-64
2022/11/30 00:52:31;;;;;;;5.93;4.97;;;;;;;;;;5024775;28;20194;-63
2022/11/30 00:54:58;;;;;;;4.83;3.90;;;;;;;;;;5042502;28;20684;-63
2022/11/30 00:57:30;;;;;;;4.50;4.10;;;;;;;;;;5051537;28;20795;-63
2022/11/30 00:59:57;;;;;;;4.10;3.70;;;;;;;;;;5022311;28;20331;-62
2022/11/30 01:02:24;;;;;;;4.67;4.00;;;;;;;;;;5022237;28;20223;-62
2022/11/30 01:04:52;;;;;;;3.80;3.40;;;;;;;;;;5032452;28;20922;-63
2022/11/30 01:07:19;;;;;;;3.60;3.30;;;;;;;;;;5026695;28;20300;-63
2022/11/30 01:09:47;;;;;;;3.73;3.33;;;;;;;;;;5025311;28;20230;-62
2022/11/30 01:12:14;;;;;;;3.90;3.50;;;;;;;;;;5044592;28;20296;-62
2022/11/30 01:14:41;;;;;;;3.60;3.30;;;;;;;;;;5026406;28;20233;-62
2022/11/30 01:17:10;;;;;;;3.63;3.30;;;;;;;;;;5035675;28;20610;-62
2022/11/30 01:19:37;;;;;;;4.90;3.73;;;;;;;;;;5041876;28;20202;-62
2022/11/30 01:22:04;;;;;;;5.23;4.80;;;;;;;;;;5051635;28;20235;-63
2022/11/30 01:24:32;;;;;;;3.57;3.07;;;;;;;;;;5043331;28;20500;-63
2022/11/30 01:26:59;;;;;;;5.20;4.37;;;;;;;;;;5041900;28;20244;-63
2022/11/30 01:29:26;;;;;;;4.57;4.17;;;;;;;;;;5045127;28;20278;-63
2022/11/30 01:31:54;;;;;;;3.67;3.37;;;;;;;;;;5045697;28;20212;-63
2022/11/30 01:34:21;;;;;;;4.63;4.03;;;;;;;;;;5047973;28;20277;-63
2022/11/30 01:36:48;;;;;;;5.70;5.20;;;;;;;;;;5066462;28;20233;-62
2022/11/30 01:39:16;;;;;;;4.23;3.83;;;;;;;;;;5041410;28;20256;-63
2022/11/30 01:41:43;;;;;;;5.20;4.40;;;;;;;;;;5043520;28;20318;-62
2022/11/30 01:44:13;;;;;;;5.20;4.53;;;;;;;;;;5028117;28;20596;-63
2022/11/30 01:46:54;;;;;;;4.80;4.33;;;;;;;;;;5022954;28;20201;-62
2022/11/30 01:49:32;;;;;;;5.33;4.60;;;;;;;;;;5025910;28;20227;-62
2022/11/30 01:52:03;;;;;;;5.07;4.30;;;;;;;;;;5044496;28;20698;-63
2022/11/30 01:54:49;;;;;;;5.03;4.30;;;;;;;;;;5041116;28;20306;-62
2022/11/30 01:57:21;;;;;;;4.87;4.37;;;;;;;;;;5028661;28;20209;-62
2022/11/30 01:59:50;;;;;;;4.50;3.97;;;;;;;;;;5028521;28;20214;-62
2022/11/30 02:02:25;;;;;;;4.43;4.03;;;;;;;;;;5024332;28;22042;-62
2022/11/30 02:04:53;;;;;;;5.40;3.77;;;;;;;;;;5026910;28;20290;-63
2022/11/30 02:07:20;;;;;;;4.20;3.80;;;;;;;;;;5025835;28;20294;-63
2022/11/30 02:09:48;;;;;;;4.97;4.40;;;;;;;;;;5025530;28;20298;-62
2022/11/30 02:12:35;;;;;;;4.73;4.30;;;;;;;;;;5020772;28;20199;-66
2022/11/30 02:15:08;;;;;;;4.33;3.87;;;;;;;;;;4998977;28;20211;-62
2022/11/30 02:17:57;;;;;;;5.23;4.63;;;;;;;;;;5019518;28;20213;-63
2022/11/30 02:20:51;;;;;;;4.43;4.03;;;;;;;;;;5045405;28;20352;-62
2022/11/30 02:23:37;;;;;;;5.53;4.60;;;;;;;;;;5012088;28;24873;-62
2022/11/30 02:26:28;;;;;;;5.33;4.63;;;;;;;;;;5027255;28;20205;-62
2022/11/30 02:28:59;;;;;;;7.37;4.97;;;;;;;;;;5027357;28;20236;-63
2022/11/30 02:31:29;;;;;;;6.50;5.13;;;;;;;;;;5028839;28;20286;-63
2022/11/30 02:33:57;;;;;;;5.30;4.80;;;;;;;;;;5028911;28;20259;-62
2022/11/30 02:36:26;;;;;;;5.60;5.00;;;;;;;;;;5028096;28;20213;-62
2022/11/30 02:38:53;;;;;;;6.67;5.20;;;;;;;;;;5033000;28;20314;-62
2022/11/30 02:41:21;;;;;;;6.03;5.00;;;;;;;;;;5025533;28;20853;-63
2022/11/30 02:43:49;;;;;;;7.53;5.47;;;;;;;;;;5032312;28;20229;-62
2022/11/30 02:46:24;;;;;;;6.00;5.40;;;;;;;;;;5026136;28;20219;-62
2022/11/30 02:49:04;;;;;;;9.57;5.77;;;;;;;;;;5031978;28;20230;-63
2022/11/30 02:51:32;;;;;;;6.40;5.70;;;;;;;;;;5054029;28;20289;-63
2022/11/30 02:53:59;;;;;;;6.40;5.70;;;;;;;;;;5038815;28;20976;-63
2022/11/30 02:56:27;;;;;;;7.40;5.90;;;;;;;;;;5049621;28;20274;-63
2022/11/30 02:58:55;;;;;;;7.27;6.40;;;;;;;;;;5054672;28;20644;-63
2022/11/30 03:01:23;;;;;;;7.13;5.97;;;;;;;;;;5027701;28;20217;-62
2022/11/30 03:03:50;;;;;;;6.73;6.03;;;;;;;;;;5030722;28;20928;-62
2022/11/30 03:06:17;;;;;;;7.60;6.23;;;;;;;;;;5028143;28;20206;-63
2022/11/30 03:08:44;;;;;;;7.17;6.47;;;;;;;;;;5030296;28;20313;-63
2022/11/30 03:11:12;;;;;;;9.07;6.67;;;;;;;;;;5034143;28;20328;-62
2022/11/30 03:13:39;;;;;;;7.53;6.60;;;;;;;;;;5031739;28;20313;-63
2022/11/30 03:16:10;;;;;;;7.87;7.07;;;;;;;;;;5028570;28;20202;-62
2022/11/30 03:18:38;;;;;;;8.73;7.47;;;;;;;;;;5049119;28;20208;-62
2022/11/30 03:21:07;;;;;;;9.20;7.90;;;;;;;;;;5042524;28;20272;-63
2022/11/30 03:23:35;;;;;;;9.37;7.50;;;;;;;;;;5065866;28;20257;-63
2022/11/30 03:26:03;;;;;;;9.40;7.40;;;;;;;;;;5046013;28;20694;-62
2022/11/30 03:28:31;;;;;;;9.73;7.57;;;;;;;;;;5032202;28;20245;-63
2022/11/30 03:30:58;;;;;;;9.80;8.20;;;;;;;;;;5050901;28;20327;-63
2022/11/30 03:33:26;;;;;;;10.27;7.90;;;;;;;;;;5030077;28;20280;-62
2022/11/30 03:36:03;;;;;;;9.63;8.03;;;;;;;;;;5033190;28;20713;-62
2022/11/30 03:38:31;;;;;;;9.80;7.53;;;;;;;;;;5021537;28;20722;-62
2022/11/30 03:40:59;;;;;;;11.83;9.13;;;;;;;;;;5041398;28;20596;-63
2022/11/30 03:43:26;;;;;;;12.80;9.10;;;;;;;;;;5034458;28;20237;-62
2022/11/30 03:45:54;;;;;;;14.70;9.97;;;;;;;;;;5040779;28;20209;-62
2022/11/30 03:48:22;;;;;;;12.90;9.80;;;;;;;;;;5027933;28;20289;-62
2022/11/30 03:50:50;;;;;;;12.90;9.40;;;;;;;;;;5044900;28;20210;-63
2022/11/30 03:53:18;;;;;;;13.27;9.97;;;;;;;;;;5046751;28;20229;-63
2022/11/30 03:55:45;;;;;;;14.67;11.10;;;;;;;;;;5043473;28;20217;-62
2022/11/30 03:58:13;;;;;;;20.27;12.77;;;;;;;;;;5023824;28;20197;-63
2022/11/30 04:00:40;;;;;;;20.63;12.10;;;;;;;;;;5046643;28;20213;-63
2022/11/30 04:03:08;;;;;;;22.00;13.30;;;;;;;;;;5048148;28;20318;-63
2022/11/30 04:05:36;;;;;;;18.47;12.90;;;;;;;;;;5026905;28;20214;-62
2022/11/30 04:08:03;;;;;;;18.20;12.43;;;;;;;;;;5015016;28;20646;-63
2022/11/30 04:10:31;;;;;;;20.70;13.03;;;;;;;;;;5035961;28;20304;-62
2022/11/30 04:12:58;;;;;;;22.53;13.17;;;;;;;;;;5020120;28;20221;-63
2022/11/30 04:15:25;;;;;;;21.97;12.97;;;;;;;;;;5032857;28;20477;-62
2022/11/30 04:17:52;;;;;;;20.47;13.20;;;;;;;;;;5031661;28;20236;-63
2022/11/30 04:20:20;;;;;;;19.63;13.17;;;;;;;;;;5035879;28;20288;-63
2022/11/30 04:22:47;;;;;;;22.57;13.67;;;;;;;;;;5035766;28;20316;-63
2022/11/30 04:25:15;;;;;;;21.53;13.10;;;;;;;;;;5048738;28;20352;-62
2022/11/30 04:27:46;;;;;;;22.13;13.67;;;;;;;;;;5029489;28;20198;-61
2022/11/30 04:30:13;;;;;;;23.30;13.13;;;;;;;;;;5042917;28;20286;-62
2022/11/30 04:32:41;;;;;;;25.43;14.10;;;;;;;;;;5035833;28;20213;-62
2022/11/30 04:35:10;;;;;;;23.33;14.80;;;;;;;;;;5044798;28;20743;-62
2022/11/30 04:37:45;;;;;;;25.40;15.63;;;;;;;;;;5031712;28;20206;-63
2022/11/30 04:40:13;;;;;;;25.13;15.57;;;;;;;;;;5019595;28;20346;-62
2022/11/30 04:42:41;;;;;;;31.00;15.67;;;;;;;;;;5042253;28;20249;-62
2022/11/30 04:45:08;;;;;;;29.30;16.27;;;;;;;;;;5033317;28;20220;-62
2022/11/30 04:47:36;;;;;;;33.17;17.57;;;;;;;;;;5032392;28;20197;-62
2022/11/30 04:50:03;;;;;;;33.63;18.53;;;;;;;;;;5029638;28;20228;-62
2022/11/30 04:52:31;;;;;;;45.37;20.83;;;;;;;;;;5038945;28;20213;-62
2022/11/30 04:54:58;;;;;;;41.60;20.57;;;;;;;;;;5029570;28;20212;-62
2022/11/30 04:57:26;;;;;;;42.40;19.80;;;;;;;;;;5033929;28;20292;-62
2022/11/30 04:59:53;;;;;;;42.60;21.17;;;;;;;;;;5024501;28;20222;-62
2022/11/30 05:02:21;;;;;;;42.10;20.63;;;;;;;;;;5050647;28;20212;-62
2022/11/30 05:04:48;;;;;;;41.13;20.60;;;;;;;;;;5028596;28;22734;-63
2022/11/30 05:07:16;;;;;;;38.67;19.77;;;;;;;;;;5033227;28;20683;-62
2022/11/30 05:09:43;;;;;;;44.67;21.07;;;;;;;;;;5028181;28;20234;-62
2022/11/30 05:12:11;;;;;;;42.10;20.70;;;;;;;;;;5033945;28;20208;-63
2022/11/30 05:14:38;;;;;;;39.23;20.83;;;;;;;;;;5025484;28;20311;-62
2022/11/30 05:17:05;;;;;;;34.53;19.23;;;;;;;;;;5033471;28;20734;-63
2022/11/30 05:19:33;;;;;;;33.00;17.87;;;;;;;;;;5059997;28;20283;-63
2022/11/30 05:22:00;;;;;;;39.13;19.00;;;;;;;;;;5045675;28;20264;-63
2022/11/30 05:24:28;;;;;;;37.73;19.33;;;;;;;;;;5071573;28;20713;-62
2022/11/30 05:26:55;;;;;;;37.87;20.53;;;;;;;;;;5042684;28;20565;-63
2022/11/30 05:29:23;;;;;;;41.70;20.37;;;;;;;;;;5045628;28;20288;-62
2022/11/30 05:31:50;;;;;;;42.80;20.40;;;;;;;;;;5029882;28;20213;-62
2022/11/30 05:34:17;;;;;;;41.90;20.77;;;;;;;;;;5027178;28;20276;-62
2022/11/30 05:36:45;;;;;;;46.07;22.80;;;;;;;;;;5047964;28;20834;-62
2022/11/30 05:39:12;;;;;;;47.63;22.20;;;;;;;;;;5023933;28;20322;-64
2022/11/30 05:41:39;;;;;;;49.97;21.97;;;;;;;;;;5028913;28;20217;-62
2022/11/30 05:44:08;;;;;;;52.17;22.80;;;;;;;;;;5025209;28;20357;-63
2022/11/30 05:46:36;;;;;;;47.33;22.97;;;;;;;;;;5041485;28;20760;-62
2022/11/30 05:49:07;;;;;;;46.33;22.60;;;;;;;;;;5028069;28;20383;-62
2022/11/30 05:51:34;;;;;;;42.27;21.83;;;;;;;;;;5027326;28;20312;-62
2022/11/30 05:54:02;;;;;;;45.60;24.30;;;;;;;;;;5025450;28;20229;-62
2022/11/30 05:56:29;;;;;;;53.30;24.80;;;;;;;;;;5046678;28;20266;-62
2022/11/30 05:58:57;;;;;;;58.87;25.90;;;;;;;;;;5028818;28;20292;-62
2022/11/30 06:01:27;;;;;;;47.37;23.63;;;;;;;;;;5026380;28;21296;-62
2022/11/30 06:03:55;;;;;;;54.17;25.20;;;;;;;;;;5028510;28;20229;-63
2022/11/30 06:06:23;;;;;;;51.50;24.63;;;;;;;;;;5031487;28;20690;-63
2022/11/30 06:08:50;;;;;;;46.07;22.63;;;;;;;;;;5040066;28;20293;-62
2022/11/30 06:11:18;;;;;;;46.97;22.47;;;;;;;;;;5049667;28;20211;-62
2022/11/30 06:13:45;;;;;;;52.67;26.03;;;;;;;;;;5035968;28;20331;-62
2022/11/30 06:16:13;;;;;;;56.67;30.47;;;;;;;;;;5031451;28;20230;-62
2022/11/30 06:18:40;;;;;;;55.37;26.60;;;;;;;;;;5050517;28;20360;-62
2022/11/30 06:21:09;;;;;;;51.23;24.80;;;;;;;;;;5033831;28;20201;-62
2022/11/30 06:23:36;;;;;;;41.77;21.60;;;;;;;;;;5064644;28;20217;-62
2022/11/30 06:26:07;;;;;;;45.83;22.63;;;;;;;;;;5058971;28;20275;-62
2022/11/30 06:28:34;;;;;;;53.57;23.67;;;;;;;;;;5047738;28;20495;-62
2022/11/30 06:31:03;;;;;;;45.43;23.17;;;;;;;;;;5056032;28;20888;-62
2022/11/30 06:33:30;;;;;;;41.87;21.13;;;;;;;;;;5045818;28;20253;-63
2022/11/30 06:35:58;;;;;;;42.07;21.87;;;;;;;;;;5028042;28;20217;-62
2022/11/30 06:38:25;;;;;;;47.47;21.77;;;;;;;;;;5051810;28;20241;-62
2022/11/30 06:40:53;;;;;;;35.53;17.80;;;;;;;;;;5044568;28;20903;-63
2022/11/30 06:43:20;;;;;;;33.97;18.33;;;;;;;;;;5050661;28;20325;-63
2022/11/30 06:45:48;;;;;;;36.00;19.20;;;;;;;;;;5024148;28;20241;-62
2022/11/30 06:48:15;;;;;;;32.20;17.43;;;;;;;;;;5047265;28;20214;-63
2022/11/30 06:50:43;;;;;;;35.83;18.47;;;;;;;;;;5053306;28;20957;-62
2022/11/30 06:53:16;;;;;;;30.47;17.10;;;;;;;;;;5027543;28;20310;-62
2022/11/30 06:55:43;;;;;;;25.53;16.03;;;;;;;;;;5033313;28;20279;-62
2022/11/30 06:58:11;;;;;;;31.37;17.23;;;;;;;;;;5031538;28;20240;-62
2022/11/30 07:00:39;;;;;;;32.00;16.37;;;;;;;;;;5037634;28;20292;-62
2022/11/30 07:03:07;;;;;;;28.87;16.47;;;;;;;;;;5031907;28;20236;-62
2022/11/30 07:05:38;;;;;;;28.13;16.03;;;;;;;;;;5034586;28;20232;-62
2022/11/30 07:08:06;;;;;;;28.47;15.80;;;;;;;;;;5032875;28;20287;-62
2022/11/30 07:10:33;;;;;;;27.23;16.17;;;;;;;;;;5030629;28;20809;-61
2022/11/30 07:13:01;;;;;;;25.87;15.03;;;;;;;;;;5052195;28;20307;-61
2022/11/30 07:15:28;;;;;;;28.83;15.33;;;;;;;;;;5029133;28;20278;-62
2022/11/30 07:17:55;;;;;;;26.83;14.60;;;;;;;;;;5040947;28;20483;-61
2022/11/30 07:20:23;;;;;;;27.00;15.23;;;;;;;;;;5047759;28;20236;-63
2022/11/30 07:22:50;;;;;;;25.57;15.17;;;;;;;;;;5046848;28;20824;-64
2022/11/30 07:28:03;;;;;;;23.20;13.57;;;;;;;;;;5064569;28;20730;-63
2022/11/30 07:30:31;;;;;;;25.43;15.67;;;;;;;;;;5043633;28;20217;-61
2022/11/30 07:32:58;;;;;;;26.57;15.40;;;;;;;;;;5049421;28;20217;-62
2022/11/30 07:35:26;;;;;;;27.73;15.90;;;;;;;;;;5053758;28;20756;-62
2022/11/30 07:37:53;;;;;;;29.20;16.73;;;;;;;;;;5034527;28;20850;-62
2022/11/30 07:40:20;;;;;;;24.93;14.70;;;;;;;;;;5053367;28;20296;-63
2022/11/30 07:42:47;;;;;;;50.77;31.97;;;;;;;;;;5048667;28;20387;-64
2022/11/30 07:45:15;;;;;;;25.87;16.20;;;;;;;;;;5043323;28;20296;-61
2022/11/30 07:47:42;;;;;;;28.30;17.20;;;;;;;;;;5045402;28;20292;-61
2022/11/30 07:50:09;;;;;;;26.07;16.70;;;;;;;;;;5022705;28;20253;-63
2022/11/30 07:52:37;;;;;;;24.30;15.13;;;;;;;;;;5034547;28;20229;-65
2022/11/30 07:55:05;;;;;;;24.80;15.83;;;;;;;;;;5036701;28;20210;-61
2022/11/30 07:57:32;;;;;;;21.50;14.03;;;;;;;;;;5039209;28;20236;-61
2022/11/30 08:00:03;;;;;;;20.83;13.20;;;;;;;;;;5055486;28;20219;-61
2022/11/30 08:02:30;;;;;;;20.77;13.10;;;;;;;;;;5048540;28;20223;-63
2022/11/30 08:04:57;;;;;;;24.53;14.37;;;;;;;;;;5033448;28;20578;-63
2022/11/30 08:07:25;;;;;;;21.37;13.07;;;;;;;;;;5022014;28;20214;-64
2022/11/30 08:09:53;;;;;;;22.30;12.83;;;;;;;;;;5024347;28;21537;-63
2022/11/30 08:12:20;;;;;;;21.47;13.63;;;;;;;;;;5021447;28;20214;-62
2022/11/30 08:14:48;;;;;;;21.23;12.60;;;;;;;;;;5026704;28;20204;-64
2022/11/30 08:17:35;;;;;;;20.77;12.47;;;;;;;;;;5032832;28;20399;-63
2022/11/30 08:20:02;;;;;;;22.63;12.97;;;;;;;;;;5024179;28;20237;-63
2022/11/30 08:22:31;;;;;;;20.10;12.47;;;;;;;;;;5031131;28;20209;-62
2022/11/30 08:24:59;;;;;;;20.20;13.30;;;;;;;;;;5028061;28;20214;-64
2022/11/30 08:27:27;;;;;;;21.10;12.60;;;;;;;;;;5023895;28;21056;-63
2022/11/30 08:29:54;;;;;;;20.47;12.90;;;;;;;;;;5042395;28;20226;-63
2022/11/30 08:32:22;;;;;;;17.77;11.43;;;;;;;;;;5025435;28;20810;-62
2022/11/30 08:34:49;;;;;;;18.43;11.50;;;;;;;;;;5024902;28;20736;-61
2022/11/30 08:37:17;;;;;;;19.90;12.30;;;;;;;;;;5031315;28;20304;-64
2022/11/30 08:39:44;;;;;;;17.53;11.53;;;;;;;;;;5022315;28;20304;-62
2022/11/30 08:42:12;;;;;;;22.90;13.63;;;;;;;;;;5029828;28;20685;-62
2022/11/30 08:44:39;;;;;;;20.63;13.30;;;;;;;;;;5024179;28;20403;-63
2022/11/30 08:47:09;;;;;;;25.77;15.27;;;;;;;;;;5029310;28;20206;-62
2022/11/30 08:49:36;;;;;;;21.73;12.67;;;;;;;;;;5023188;28;20197;-61
2022/11/30 08:52:04;;;;;;;22.63;13.87;;;;;;;;;;5025309;28;20651;-62
2022/11/30 08:54:47;;;;;;;18.60;12.03;;;;;;;;;;5027305;28;20308;-63
2022/11/30 08:57:20;;;;;;;21.73;13.23;;;;;;;;;;5027967;28;21243;-63
2022/11/30 08:59:48;;;;;;;22.07;13.83;;;;;;;;;;5041107;28;20355;-63
2022/11/30 09:02:17;;;;;;;17.07;11.47;;;;;;;;;;5026356;28;20304;-64
2022/11/30 09:04:47;;;;;;;19.63;12.80;;;;;;;;;;5025386;28;20205;-63
2022/11/30 09:07:15;;;;;;;19.30;12.07;;;;;;;;;;5026878;28;20235;-63
2022/11/30 09:09:43;;;;;;;21.83;11.97;;;;;;;;;;5026117;28;20197;-61
2022/11/30 09:12:10;;;;;;;21.93;14.27;;;;;;;;;;5029562;28;20197;-62
2022/11/30 09:14:37;;;;;;;23.30;15.13;;;;;;;;;;5026388;28;20225;-61
2022/11/30 09:17:05;;;;;;;18.27;12.00;;;;;;;;;;5038736;28;20309;-62
2022/11/30 09:19:32;;;;;;;20.63;12.33;;;;;;;;;;5043630;28;20296;-62
2022/11/30 09:21:59;;;;;;;24.33;13.83;;;;;;;;;;5046276;28;20296;-61
2022/11/30 09:24:27;;;;;;;26.03;15.63;;;;;;;;;;5067135;28;20751;-63
2022/11/30 09:26:58;;;;;;;25.47;15.97;;;;;;;;;;5050788;28;20205;-61
2022/11/30 09:29:25;;;;;;;25.93;16.00;;;;;;;;;;5051724;28;20642;-62
2022/11/30 09:31:53;;;;;;;27.50;16.03;;;;;;;;;;5051648;28;20313;-62
2022/11/30 09:34:20;;;;;;;26.83;15.77;;;;;;;;;;5034222;28;20790;-63
2022/11/30 09:36:47;;;;;;;29.43;16.20;;;;;;;;;;5049700;28;20314;-63
2022/11/30 09:39:15;;;;;;;38.63;23.20;;;;;;;;;;5031467;28;20198;-63
2022/11/30 09:41:43;;;;;;;27.27;15.27;;;;;;;;;;5035811;28;20216;-63
2022/11/30 09:44:10;;;;;;;23.60;13.73;;;;;;;;;;5033580;28;20312;-63
2022/11/30 09:46:58;;;;;;;23.50;13.10;;;;;;;;;;5048039;28;20207;-63
2022/11/30 09:49:45;;;;;;;22.97;13.17;;;;;;;;;;5046856;28;20304;-63
2022/11/30 09:52:18;;;;;;;24.00;14.07;;;;;;;;;;5025170;28;20248;-63
2022/11/30 09:54:46;;;;;;;32.87;21.90;;;;;;;;;;5042260;28;20205;-63
2022/11/30 09:57:33;;;;;;;25.30;15.20;;;;;;;;;;5049220;28;20217;-62
2022/11/30 10:00:04;;;;;;;22.23;13.40;;;;;;;;;;5030178;28;20300;-63
2022/11/30 10:02:37;;;;;;;26.27;15.80;;;;;;;;;;5051097;28;20531;-63
2022/11/30 10:05:15;;;;;;;35.93;23.40;;;;;;;;;;5036192;28;20289;-62
2022/11/30 10:07:46;;;;;;;22.73;13.80;;;;;;;;;;5030876;28;20198;-63
2022/11/30 10:10:16;;;;;;;20.87;13.00;;;;;;;;;;5050068;28;20596;-62
2022/11/30 10:13:08;;;;;;;22.97;13.40;;;;;;;;;;5044612;28;20312;-62
2022/11/30 10:15:52;;;;;;;23.33;13.57;;;;;;;;;;5035960;28;20287;-63
2022/11/30 10:18:20;;;;;;;19.67;12.53;;;;;;;;;;5044866;28;20204;-62
2022/11/30 10:21:06;;;;;;;15.37;10.03;;;;;;;;;;5031403;28;20202;-62
2022/11/30 10:23:46;;;;;;;20.17;12.57;;;;;;;;;;5049838;28;20380;-62
2022/11/30 10:26:18;;;;;;;32.00;19.80;;;;;;;;;;5044845;28;20606;-63
2022/11/30 10:28:57;;;;;;;15.10;9.40;;;;;;;;;;5052185;28;20205;-63
2022/11/30 10:31:35;;;;;;;20.07;13.13;;;;;;;;;;5047095;28;20699;-63
2022/11/30 10:34:15;;;;;;;14.03;9.30;;;;;;;;;;5023055;28;20225;-63
2022/11/30 10:36:45;;;;;;;14.73;9.37;;;;;;;;;;5017975;28;20580;-64
2022/11/30 10:39:32;;;;;;;22.20;14.67;;;;;;;;;;5020200;28;20719;-63
2022/11/30 10:42:03;;;;;;;12.53;8.57;;;;;;;;;;5030612;28;20201;-62
2022/11/30 10:44:33;;;;;;;12.70;8.67;;;;;;;;;;5027338;28;20360;-62
2022/11/30 10:47:11;;;;;;;11.03;7.63;;;;;;;;;;5043379;28;20214;-62
2022/11/30 10:49:41;;;;;;;19.17;13.60;;;;;;;;;;5033773;28;20237;-62
2022/11/30 10:52:11;;;;;;;12.67;9.27;;;;;;;;;;5036286;28;20237;-62
2022/11/30 10:54:38;;;;;;;11.50;8.90;;;;;;;;;;5039933;28;20717;-62
2022/11/30 10:57:06;;;;;;;8.50;6.40;;;;;;;;;;5017678;28;20271;-62
2022/11/30 10:59:42;;;;;;;15.17;10.73;;;;;;;;;;5027705;28;20619;-63
2022/11/30 11:02:28;;;;;;;12.77;8.93;;;;;;;;;;5026231;28;20212;-63
2022/11/30 11:05:07;;;;;;;9.70;7.70;;;;;;;;;;5043174;28;20202;-62
2022/11/30 11:07:44;;;;;;;13.73;10.50;;;;;;;;;;5043599;28;20288;-62
2022/11/30 11:10:29;;;;;;;8.70;6.60;;;;;;;;;;5044426;28;20200;-63
2022/11/30 11:12:57;;;;;;;8.20;5.73;;;;;;;;;;5045079;28;20668;-63
2022/11/30 11:15:29;;;;;;;7.10;5.83;;;;;;;;;;5043033;28;20259;-63
2022/11/30 11:18:20;;;;;;;9.07;6.53;;;;;;;;;;5051767;28;20834;-63
2022/11/30 11:20:47;;;;;;;11.00;6.77;;;;;;;;;;5050700;28;20209;-62
2022/11/30 11:23:31;;;;;;;12.50;7.67;;;;;;;;;;5039836;28;20614;-63
2022/11/30 11:25:59;;;;;;;12.87;7.70;;;;;;;;;;5040360;28;20205;-62
2022/11/30 11:28:26;;;;;;;11.23;7.33;;;;;;;;;;5056998;28;20229;-63
2022/11/30 11:30:55;;;;;;;11.33;7.43;;;;;;;;;;5050132;28;20321;-63
2022/11/30 11:33:23;;;;;;;12.67;8.67;;;;;;;;;;5034316;28;20232;-62
2022/11/30 11:35:52;;;;;;;11.77;7.63;;;;;;;;;;5023140;28;20239;-63
2022/11/30 11:38:20;;;;;;;19.37;12.83;;;;;;;;;;5035809;28;20221;-63
2022/11/30 11:40:52;;;;;;;22.83;13.77;;;;;;;;;;5040066;28;20292;-62
2022/11/30 11:43:20;;;;;;;13.50;7.70;;;;;;;;;;5045647;28;20253;-62
2022/11/30 11:45:52;;;;;;;9.33;6.63;;;;;;;;;;5021355;28;20829;-62
2022/11/30 11:48:35;;;;;;;13.23;8.70;;;;;;;;;;5022236;28;20239;-62
2022/11/30 11:51:04;;;;;;;9.43;6.87;;;;;;;;;;5022301;28;20307;-62
2022/11/30 11:53:34;;;;;;;10.07;7.50;;;;;;;;;;5037221;28;20594;-62
2022/11/30 11:56:30;;;;;;;7.63;6.53;;;;;;;;;;5039947;28;20266;-63
2022/11/30 11:59:10;;;;;;;7.30;6.50;;;;;;;;;;5053232;28;20237;-63
2022/11/30 12:01:46;;;;;;;14.20;11.57;;;;;;;;;;5042028;28;20225;-63
2022/11/30 12:04:32;;;;;;;7.57;6.67;;;;;;;;;;5039697;28;20222;-64
2022/11/30 12:07:01;;;;;;;9.87;7.30;;;;;;;;;;5029488;28;20585;-63
2022/11/30 12:09:35;;;;;;;6.23;5.60;;;;;;;;;;5027099;28;20210;-63
2022/11/30 12:12:05;;;;;;;11.00;8.30;;;;;;;;;;5026195;28;22385;-62
2022/11/30 12:14:34;;;;;;;5.20;4.23;;;;;;;;;;5037249;28;20260;-62
2022/11/30 12:17:20;;;;;;;5.07;4.57;;;;;;;;;;5028676;28;20923;-62
2022/11/30 12:20:07;;;;;;;7.83;6.17;;;;;;;;;;5025720;28;20213;-63
2022/11/30 12:22:54;;;;;;;4.77;4.17;;;;;;;;;;5034902;28;20292;-63
2022/11/30 12:25:26;;;;;;;7.70;6.40;;;;;;;;;;5052437;28;20751;-62
2022/11/30 12:28:13;;;;;;;4.63;4.23;;;;;;;;;;5041982;28;20245;-64
2022/11/30 12:30:52;;;;;;;6.67;5.80;;;;;;;;;;5054153;28;20807;-62
2022/11/30 12:33:35;;;;;;;4.30;3.90;;;;;;;;;;5030337;28;20237;-62
2022/11/30 12:36:10;;;;;;;7.43;5.67;;;;;;;;;;5036473;28;20206;-63
2022/11/30 12:38:52;;;;;;;4.43;4.03;;;;;;;;;;5041760;28;20418;-63
2022/11/30 12:41:39;;;;;;;4.30;3.90;;;;;;;;;;5043445;28;20340;-63
2022/11/30 12:44:27;;;;;;;5.23;4.23;;;;;;;;;;5049660;28;20328;-62
2022/11/30 12:47:03;;;;;;;5.10;4.40;;;;;;;;;;5029666;28;20209;-63
2022/11/30 12:49:34;;;;;;;4.50;4.10;;;;;;;;;;5048409;28;20340;-63
2022/11/30 12:52:09;;;;;;;4.93;4.43;;;;;;;;;;5045434;28;20641;-63
2022/11/30 12:54:59;;;;;;;4.67;4.00;;;;;;;;;;5034905;28;20324;-62
2022/11/30 12:57:34;;;;;;;4.40;3.67;;;;;;;;;;5023862;28;20303;-64
2022/11/30 13:00:34;;;;;;;5.03;4.33;;;;;;;;;;5049518;28;20204;-63
2022/11/30 13:03:20;;;;;;;5.00;4.37;;;;;;;;;;4995064;28;20275;-63
2022/11/30 13:05:51;;;;;;;4.17;3.73;;;;;;;;;;5059523;28;20293;-63
2022/11/30 13:08:37;;;;;;;4.60;3.77;;;;;;;;;;5039242;28;20248;-63
2022/11/30 13:11:12;;;;;;;4.73;4.20;;;;;;;;;;5036450;28;20316;-63
2022/11/30 13:13:42;;;;;;;4.87;4.13;;;;;;;;;;5035862;28;20632;-63
2022/11/30 13:16:10;;;;;;;5.83;4.63;;;;;;;;;;5030943;28;20711;-63
2022/11/30 13:18:37;;;;;;;4.57;4.10;;;;;;;;;;5038966;28;20208;-63
2022/11/30 13:21:09;;;;;;;7.67;5.90;;;;;;;;;;5049570;28;20233;-63
2022/11/30 13:23:41;;;;;;;6.93;5.03;;;;;;;;;;5053808;28;20316;-63
2022/11/30 13:26:18;;;;;;;5.87;5.10;;;;;;;;;;5065522;28;20205;-63
2022/11/30 13:29:04;;;;;;;6.43;5.00;;;;;;;;;;5047603;28;20256;-62
2022/11/30 13:31:52;;;;;;;7.03;5.50;;;;;;;;;;5048613;28;20279;-63
2022/11/30 13:34:27;;;;;;;8.93;5.93;;;;;;;;;;5037300;28;20225;-64
2022/11/30 13:37:02;;;;;;;7.57;6.17;;;;;;;;;;5030203;28;20223;-61
2022/11/30 13:39:31;;;;;;;8.10;6.00;;;;;;;;;;5046359;28;20209;-64
2022/11/30 13:42:01;;;;;;;7.73;5.50;;;;;;;;;;5025976;28;20202;-62
2022/11/30 13:44:33;;;;;;;8.73;7.00;;;;;;;;;;5044230;28;20259;-62
2022/11/30 13:47:19;;;;;;;7.73;6.40;;;;;;;;;;5023852;28;20816;-61
2022/11/30 13:49:54;;;;;;;6.87;6.10;;;;;;;;;;5029570;28;20711;-63
2022/11/30 13:52:41;;;;;;;8.70;6.00;;;;;;;;;;5050697;28;20217;-63
2022/11/30 13:55:27;;;;;;;6.07;5.47;;;;;;;;;;5039229;28;20330;-62
2022/11/30 13:57:54;;;;;;;8.93;6.87;;;;;;;;;;5031725;28;20228;-63
2022/11/30 14:00:31;;;;;;;13.00;8.63;;;;;;;;;;5034893;28;23117;-62
2022/11/30 14:03:07;;;;;;;10.33;8.03;;;;;;;;;;5041390;28;20322;-63
2022/11/30 14:05:40;;;;;;;13.60;10.87;;;;;;;;;;5037271;28;20201;-63
2022/11/30 14:08:09;;;;;;;8.43;6.10;;;;;;;;;;5031411;28;20213;-63
2022/11/30 14:10:36;;;;;;;8.53;6.10;;;;;;;;;;5028120;28;20217;-62
2022/11/30 14:13:04;;;;;;;14.43;10.23;;;;;;;;;;5043195;28;20454;-64
2022/11/30 14:15:38;;;;;;;41.03;30.70;;;;;;;;;;5027112;28;20333;-62
2022/11/30 14:18:08;;;;;;;14.67;11.27;;;;;;;;;;5044819;28;20206;-65
2022/11/30 14:20:36;;;;;;;11.20;8.03;;;;;;;;;;5043792;28;20267;-63
2022/11/30 14:23:11;;;;;;;11.47;9.50;;;;;;;;;;5045091;28;20590;-63
2022/11/30 14:25:41;;;;;;;8.47;6.70;;;;;;;;;;5063692;28;20730;-64
2022/11/30 14:28:14;;;;;;;12.27;8.43;;;;;;;;;;5042495;28;20608;-63
2022/11/30 14:30:42;;;;;;;13.77;11.17;;;;;;;;;;5046437;28;20210;-63
2022/11/30 14:33:15;;;;;;;13.83;10.20;;;;;;;;;;5040485;28;20269;-63
2022/11/30 14:35:50;;;;;;;9.43;7.47;;;;;;;;;;5043676;28;20339;-63
2022/11/30 14:38:31;;;;;;;9.07;7.33;;;;;;;;;;5033465;28;20333;-63
2022/11/30 14:40:59;;;;;;;10.83;8.17;;;;;;;;;;5021000;28;20198;-62
2022/11/30 14:43:28;;;;;;;14.67;9.97;;;;;;;;;;5021641;28;20257;-63
2022/11/30 14:46:00;;;;;;;14.23;10.87;;;;;;;;;;5032847;28;20224;-62
2022/11/30 14:48:34;;;;;;;11.80;8.27;;;;;;;;;;5031620;28;22590;-63
2022/11/30 14:51:02;;;;;;;10.07;8.17;;;;;;;;;;5038980;28;20292;-63
2022/11/30 14:53:45;;;;;;;7.93;6.67;;;;;;;;;;5036607;28;20745;-63